createdAt,value
2022-10-18T00:00:21.519Z,12.48
2022-10-18T00:01:21.645Z,12.4
2022-10-18T00:02:21.814Z,12.48
2022-10-18T00:03:21.923Z,12.48
2022-10-18T00:04:22.103Z,12.48
2022-10-18T00:05:22.226Z,12.48
2022-10-18T00:06:22.365Z,12.639999
2022-10-18T00:07:22.525Z,12.719999
2022-10-18T00:08:22.677Z,12.639999
2022-10-18T00:09:22.824Z,12.639999
2022-10-18T00:10:22.990Z,12.4
2022-10-18T00:11:23.133Z,12.719999
2022-10-18T00:12:23.277Z,12.639999
2022-10-18T00:13:23.440Z,12.719999
2022-10-18T00:14:23.598Z,12.799999
2022-10-18T00:15:23.694Z,12.799999
2022-10-18T00:16:23.824Z,12.719999
2022-10-18T00:17:23.941Z,12.88
2022-10-18T00:18:24.092Z,12.799999
2022-10-18T00:19:24.807Z,12.799999
2022-10-18T00:20:24.396Z,12.88
2022-10-18T00:21:24.548Z,12.799999
2022-10-18T00:22:24.698Z,12.719999
2022-10-18T00:23:24.809Z,12.48
2022-10-18T00:24:24.944Z,12.799999
2022-10-18T00:25:25.105Z,12.799999
2022-10-18T00:26:25.261Z,12.88
2022-10-18T00:27:25.393Z,12.88
2022-10-18T00:28:25.609Z,12.719999
2022-10-18T00:29:25.717Z,12.639999
2022-10-18T00:30:25.819Z,12.48
2022-10-18T00:31:25.902Z,12.48
2022-10-18T00:32:26.086Z,12.48
2022-10-18T00:33:26.221Z,12.639999
2022-10-18T00:34:26.376Z,12.639999
2022-10-18T00:35:26.490Z,12.32
2022-10-18T00:36:26.564Z,12.4
2022-10-18T00:37:26.762Z,12.719999
2022-10-18T00:38:26.880Z,12.639999
2022-10-18T00:39:27.027Z,12.32
2022-10-18T00:40:27.185Z,12.4
2022-10-18T00:41:27.339Z,12.32
2022-10-18T00:42:27.526Z,12.24
2022-10-18T00:43:27.631Z,12.24
2022-10-18T00:44:27.745Z,12.24
2022-10-18T00:45:27.850Z,12.24
2022-10-18T00:46:27.981Z,12.08
2022-10-18T00:47:28.091Z,12.08
2022-10-18T00:48:28.237Z,12.24
2022-10-18T00:49:28.398Z,12.24
2022-10-18T00:50:28.511Z,12.32
2022-10-18T00:51:28.649Z,12.4
2022-10-18T00:52:29.078Z,12.32
2022-10-18T00:53:28.950Z,12.32
2022-10-18T00:54:29.061Z,12.32
2022-10-18T00:55:29.211Z,12.32
2022-10-18T00:56:29.362Z,12.24
2022-10-18T00:57:29.468Z,12.32
2022-10-18T00:58:29.564Z,12.32
2022-10-18T00:59:29.711Z,12.24
2022-10-18T01:00:29.884Z,11.92
2022-10-18T01:01:30.093Z,12.24
2022-10-18T01:02:30.483Z,12.08
2022-10-18T01:03:30.225Z,12.24
2022-10-18T01:04:30.372Z,12
2022-10-18T01:05:30.524Z,11.84
2022-10-18T01:06:30.683Z,12
2022-10-18T01:07:31.113Z,12
2022-10-18T01:08:30.987Z,12.08
2022-10-18T01:09:31.131Z,12
2022-10-18T01:10:31.282Z,12
2022-10-18T01:11:31.379Z,11.92
2022-10-18T01:12:31.491Z,11.84
2022-10-18T01:13:31.642Z,11.92
2022-10-18T01:14:31.753Z,11.92
2022-10-18T01:15:32.229Z,11.92
2022-10-18T01:16:31.981Z,11.92
2022-10-18T01:17:32.317Z,11.92
2022-10-18T01:18:32.303Z,11.84
2022-10-18T01:19:32.522Z,11.92
2022-10-18T01:20:32.670Z,11.92
2022-10-18T01:21:32.695Z,11.92
2022-10-18T01:22:32.762Z,11.84
2022-10-18T01:23:32.863Z,11.92
2022-10-18T01:24:33.008Z,12
2022-10-18T01:25:33.153Z,11.92
2022-10-18T01:26:33.262Z,12
2022-10-18T01:27:33.681Z,11.92
2022-10-18T01:28:33.615Z,12.08
2022-10-18T01:29:33.714Z,12.32
2022-10-18T01:30:33.823Z,12.08
2022-10-18T01:31:33.967Z,12.08
2022-10-18T01:32:34.135Z,12
2022-10-18T01:33:34.281Z,12.24
2022-10-18T01:34:34.427Z,12.32
2022-10-18T01:35:34.573Z,12.32
2022-10-18T01:36:34.723Z,12.4
2022-10-18T01:37:34.893Z,12.32
2022-10-18T01:38:34.983Z,12.4
2022-10-18T01:39:35.136Z,12.4
2022-10-18T01:40:35.289Z,12.4
2022-10-18T01:41:35.432Z,12.48
2022-10-18T01:42:35.588Z,12.719999
2022-10-18T01:43:35.749Z,12.799999
2022-10-18T01:44:35.953Z,12.799999
2022-10-18T01:45:36.001Z,12.799999
2022-10-18T01:46:36.134Z,12.88
2022-10-18T01:47:36.241Z,12.88
2022-10-18T01:48:36.342Z,12.799999
2022-10-18T01:49:36.491Z,12.88
2022-10-18T01:50:36.692Z,12.32
2022-10-18T01:51:36.793Z,12
2022-10-18T01:52:36.894Z,11.84
2022-10-18T01:53:37.063Z,11.679999
2022-10-18T01:54:37.185Z,11.599999
2022-10-18T01:55:37.298Z,11.92
2022-10-18T01:56:37.476Z,12
2022-10-18T01:57:37.618Z,11.84
2022-10-18T01:58:37.725Z,11.84
2022-10-18T01:59:37.869Z,11.92
2022-10-18T02:00:37.976Z,11.84
2022-10-18T02:01:38.112Z,12
2022-10-18T02:02:38.213Z,12.24
2022-10-18T02:03:38.327Z,12.24
2022-10-18T02:04:38.477Z,12.24
2022-10-18T02:05:38.596Z,12.08
2022-10-18T02:06:38.723Z,12
2022-10-18T02:07:38.828Z,11.84
2022-10-18T02:08:38.986Z,11.44
2022-10-18T02:09:39.479Z,11.28
2022-10-18T02:10:39.610Z,11.28
2022-10-18T02:11:39.774Z,11.44
2022-10-18T02:12:39.944Z,11.52
2022-10-18T02:13:39.729Z,11.52
2022-10-18T02:14:40.111Z,11.679999
2022-10-18T02:15:39.945Z,11.84
2022-10-18T02:16:40.106Z,11.92
2022-10-18T02:17:40.225Z,11.679999
2022-10-18T02:18:40.313Z,11.679999
2022-10-18T02:19:40.467Z,11.599999
2022-10-18T02:20:40.608Z,11.84
2022-10-18T02:21:40.748Z,11.679999
2022-10-18T02:22:40.853Z,11.599999
2022-10-18T02:23:40.967Z,11.599999
2022-10-18T02:24:41.119Z,11.679999
2022-10-18T02:25:41.274Z,11.92
2022-10-18T02:26:41.426Z,11.84
2022-10-18T02:27:41.577Z,11.84
2022-10-18T02:28:41.697Z,11.92
2022-10-18T02:29:41.784Z,12
2022-10-18T02:30:41.909Z,11.92
2022-10-18T02:31:42.077Z,11.92
2022-10-18T02:32:42.227Z,11.92
2022-10-18T02:33:42.377Z,12
2022-10-18T02:34:42.488Z,12.08
2022-10-18T02:35:42.635Z,12.08
2022-10-18T02:36:42.786Z,12
2022-10-18T02:37:42.920Z,12
2022-10-18T02:38:43.036Z,11.84
2022-10-18T02:39:43.201Z,11.679999
2022-10-18T02:40:43.347Z,11.599999
2022-10-18T02:41:43.496Z,11.679999
2022-10-18T02:42:43.656Z,11.679999
2022-10-18T02:43:43.818Z,11.84
2022-10-18T02:44:43.950Z,11.52
2022-10-18T02:45:44.087Z,11.2
2022-10-18T02:46:44.261Z,11.04
2022-10-18T02:47:44.411Z,11.52
2022-10-18T02:48:44.552Z,11.599999
2022-10-18T02:49:44.711Z,11.52
2022-10-18T02:50:44.859Z,11.2
2022-10-18T02:51:45.020Z,11.28
2022-10-18T02:52:45.166Z,11.28
2022-10-18T02:53:45.316Z,11.44
2022-10-18T02:54:45.466Z,11.52
2022-10-18T02:55:45.625Z,11.52
2022-10-18T02:56:45.777Z,11.52
2022-10-18T02:57:45.929Z,11.2
2022-10-18T02:58:46.079Z,11.04
2022-10-18T02:59:46.240Z,10.8
2022-10-18T03:00:46.380Z,10.719999
2022-10-18T03:01:46.607Z,10.8
2022-10-18T03:02:46.682Z,11.04
2022-10-18T03:03:46.836Z,10.88
2022-10-18T03:04:46.983Z,10.88
2022-10-18T03:05:47.142Z,11.2
2022-10-18T03:06:47.249Z,11.44
2022-10-18T03:07:47.393Z,11.52
2022-10-18T03:08:47.547Z,11.52
2022-10-18T03:09:47.696Z,11.599999
2022-10-18T03:10:47.853Z,11.679999
2022-10-18T03:11:48.007Z,11.679999
2022-10-18T03:12:48.149Z,11.679999
2022-10-18T03:13:48.330Z,11.84
2022-10-18T03:14:48.470Z,11.84
2022-10-18T03:15:48.593Z,11.92
2022-10-18T03:16:48.703Z,11.92
2022-10-18T03:17:48.819Z,11.92
2022-10-18T03:18:48.961Z,12
2022-10-18T03:19:49.110Z,11.92
2022-10-18T03:20:49.268Z,12
2022-10-18T03:21:49.367Z,11.92
2022-10-18T03:22:49.518Z,12
2022-10-18T03:23:49.624Z,12
2022-10-18T03:24:49.776Z,12
2022-10-18T03:25:49.923Z,12.08
2022-10-18T03:26:50.078Z,12.24
2022-10-18T03:27:50.229Z,12.24
2022-10-18T03:28:50.417Z,12.32
2022-10-18T03:29:50.540Z,12.32
2022-10-18T03:30:50.670Z,12.32
2022-10-18T03:31:50.777Z,12.32
2022-10-18T03:32:50.943Z,12.4
2022-10-18T03:33:51.095Z,12.4
2022-10-18T03:34:51.240Z,12.4
2022-10-18T03:35:51.388Z,12.4
2022-10-18T03:36:51.548Z,12.4
2022-10-18T03:37:51.697Z,12.4
2022-10-18T03:38:51.794Z,12.639999
2022-10-18T03:39:51.947Z,12.639999
2022-10-18T03:40:52.109Z,12.719999
2022-10-18T03:41:52.261Z,12.719999
2022-10-18T03:42:52.405Z,12.719999
2022-10-18T03:43:52.564Z,12.719999
2022-10-18T03:44:52.707Z,12.799999
2022-10-18T03:45:52.800Z,12.799999
2022-10-18T03:46:52.978Z,12.88
2022-10-18T03:47:53.120Z,12.88
2022-10-18T03:48:53.266Z,12.88
2022-10-18T03:49:54.763Z,13.04
2022-10-18T03:50:53.528Z,13.04
2022-10-18T03:51:54.002Z,12.88
2022-10-18T03:52:54.158Z,13.04
2022-10-18T03:53:54.309Z,13.04
2022-10-18T03:54:54.511Z,12.88
2022-10-18T03:55:54.613Z,13.04
2022-10-18T03:56:54.813Z,12.88
2022-10-18T03:57:54.539Z,13.12
2022-10-18T03:58:54.687Z,13.04
2022-10-18T03:59:54.840Z,13.12
2022-10-18T04:00:54.973Z,13.04
2022-10-18T04:01:55.198Z,13.12
2022-10-18T04:02:55.915Z,13.12
2022-10-18T04:03:55.430Z,13.12
2022-10-18T04:04:55.581Z,13.12
2022-10-18T04:05:55.703Z,13.2
2022-10-18T04:06:55.847Z,13.2
2022-10-18T04:07:56.006Z,13.2
2022-10-18T04:08:56.149Z,13.2
2022-10-18T04:09:56.255Z,13.12
2022-10-18T04:10:56.404Z,13.12
2022-10-18T04:11:56.502Z,13.12
2022-10-18T04:12:56.611Z,13.2
2022-10-18T04:13:56.729Z,13.2
2022-10-18T04:14:56.863Z,13.2
2022-10-18T04:15:56.953Z,13.52
2022-10-18T04:16:57.119Z,13.44
2022-10-18T04:17:57.263Z,13.44
2022-10-18T04:18:57.416Z,13.28
2022-10-18T04:19:57.569Z,13.28
2022-10-18T04:20:57.730Z,13.28
2022-10-18T04:21:57.833Z,13.44
2022-10-18T04:22:57.963Z,13.44
2022-10-18T04:23:58.131Z,13.44
2022-10-18T04:24:58.284Z,13.44
2022-10-18T04:25:58.456Z,13.44
2022-10-18T04:26:58.592Z,13.44
2022-10-18T04:27:58.730Z,13.52
2022-10-18T04:28:58.914Z,13.52
2022-10-18T04:29:59.045Z,13.599999
2022-10-18T04:30:59.175Z,13.44
2022-10-18T04:31:59.355Z,13.28
2022-10-18T04:32:59.481Z,13.28
2022-10-18T04:33:59.638Z,13.44
2022-10-18T04:34:59.825Z,13.28
2022-10-18T04:35:59.944Z,13.28
2022-10-18T04:37:00.114Z,13.2
2022-10-18T04:38:00.250Z,13.2
2022-10-18T04:39:00.401Z,13.12
2022-10-18T04:40:00.570Z,13.2
2022-10-18T04:41:00.713Z,13.12
2022-10-18T04:42:00.821Z,13.12
2022-10-18T04:43:00.963Z,13.12
2022-10-18T04:44:01.069Z,13.04
2022-10-18T04:45:01.214Z,13.12
2022-10-18T04:46:01.303Z,13.12
2022-10-18T04:47:01.476Z,13.28
2022-10-18T04:48:01.619Z,13.44
2022-10-18T04:49:01.760Z,13.28
2022-10-18T04:50:01.856Z,13.28
2022-10-18T04:51:02.025Z,13.28
2022-10-18T04:52:02.188Z,13.44
2022-10-18T04:53:02.331Z,13.44
2022-10-18T04:54:02.437Z,13.28
2022-10-18T04:55:02.588Z,13.28
2022-10-18T04:56:02.733Z,13.28
2022-10-18T04:57:02.886Z,13.44
2022-10-18T04:58:03.042Z,13.44
2022-10-18T04:59:03.187Z,13.44
2022-10-18T05:00:03.342Z,13.44
2022-10-18T05:01:03.435Z,13.28
2022-10-18T05:03:04.395Z,13.04
2022-10-18T05:04:03.880Z,13.04
2022-10-18T05:05:04.043Z,12.88
2022-10-18T05:06:04.209Z,12.88
2022-10-18T05:07:04.342Z,12.88
2022-10-18T05:08:04.490Z,13.12
2022-10-18T05:09:04.641Z,13.04
2022-10-18T05:10:04.800Z,12.88
2022-10-18T05:11:05.040Z,12.799999
2022-10-18T05:12:05.096Z,12.88
2022-10-18T05:13:05.250Z,12.799999
2022-10-18T05:14:05.354Z,12.88
2022-10-18T05:15:05.502Z,13.04
2022-10-18T05:16:05.645Z,13.12
2022-10-18T05:17:05.796Z,13.2
2022-10-18T05:18:05.972Z,13.44
2022-10-18T05:19:06.071Z,13.52
2022-10-18T05:20:06.285Z,13.52
2022-10-18T05:21:06.377Z,13.52
2022-10-18T05:22:06.530Z,13.52
2022-10-18T05:23:06.683Z,13.599999
2022-10-18T05:24:06.830Z,13.599999
2022-10-18T05:25:06.984Z,13.679999
2022-10-18T05:26:07.140Z,13.84
2022-10-18T05:27:07.296Z,13.679999
2022-10-18T05:28:15.764Z,13.599999
2022-10-18T05:29:07.687Z,13.52
2022-10-18T05:30:07.746Z,13.599999
2022-10-18T05:31:07.839Z,13.84
2022-10-18T05:32:08.004Z,13.84
2022-10-18T05:33:08.145Z,13.679999
2022-10-18T05:34:08.303Z,13.679999
2022-10-18T05:35:08.453Z,13.679999
2022-10-18T05:36:08.596Z,14.08
2022-10-18T05:37:08.709Z,14.08
2022-10-18T05:38:08.850Z,14.08
2022-10-18T05:39:09.020Z,14
2022-10-18T05:40:09.120Z,13.92
2022-10-18T05:41:09.257Z,13.679999
2022-10-18T05:42:09.411Z,13.52
2022-10-18T05:43:09.568Z,13.599999
2022-10-18T05:44:09.721Z,13.599999
2022-10-18T05:45:09.866Z,13.599999
2022-10-18T05:46:13.897Z,13.84
2022-10-18T05:47:10.115Z,13.84
2022-10-18T05:48:10.222Z,13.92
2022-10-18T05:49:10.377Z,13.92
2022-10-18T05:50:10.536Z,13.92
2022-10-18T05:51:10.681Z,13.92
2022-10-18T05:52:10.781Z,13.679999
2022-10-18T05:53:12.195Z,13.679999
2022-10-18T05:54:11.082Z,13.679999
2022-10-18T05:55:11.236Z,13.599999
2022-10-18T05:56:11.412Z,13.599999
2022-10-18T05:57:11.559Z,13.52
2022-10-18T05:58:11.693Z,13.599999
2022-10-18T05:59:11.939Z,13.679999
2022-10-18T06:00:11.994Z,13.679999
2022-10-18T06:01:12.133Z,13.679999
2022-10-18T06:02:12.378Z,13.679999
2022-10-18T06:03:12.453Z,13.92
2022-10-18T06:04:12.595Z,13.92
2022-10-18T06:05:12.761Z,13.92
2022-10-18T06:06:12.918Z,14.24
2022-10-18T06:07:13.074Z,14.32
2022-10-18T06:08:13.164Z,14.08
2022-10-18T06:09:13.311Z,14
2022-10-18T06:10:13.456Z,14
2022-10-18T06:11:13.619Z,13.92
2022-10-18T06:12:13.766Z,14
2022-10-18T06:13:13.919Z,14
2022-10-18T06:14:14.065Z,13.92
2022-10-18T06:15:14.235Z,13.92
2022-10-18T06:16:14.406Z,13.92
2022-10-18T06:17:14.476Z,13.92
2022-10-18T06:18:14.628Z,13.92
2022-10-18T06:19:14.736Z,13.679999
2022-10-18T06:20:14.878Z,13.679999
2022-10-18T06:21:14.984Z,13.679999
2022-10-18T06:22:15.133Z,13.679999
2022-10-18T06:23:15.294Z,13.599999
2022-10-18T06:24:15.441Z,13.679999
2022-10-18T06:25:15.590Z,13.679999
2022-10-18T06:26:15.752Z,13.84
2022-10-18T06:27:15.896Z,13.92
2022-10-18T06:28:16.047Z,13.92
2022-10-18T06:29:16.198Z,14
2022-10-18T06:30:16.350Z,14
2022-10-18T06:31:16.440Z,14.08
2022-10-18T06:32:16.613Z,14.08
2022-10-18T06:33:16.751Z,14.08
2022-10-18T06:34:16.855Z,14.24
2022-10-18T06:35:17.006Z,14.08
2022-10-18T06:36:17.153Z,14.08
2022-10-18T06:37:17.265Z,14.24
2022-10-18T06:38:17.430Z,14.32
2022-10-18T06:39:17.529Z,14.32
2022-10-18T06:40:17.675Z,14.32
2022-10-18T06:41:17.820Z,14.32
2022-10-18T06:42:19.107Z,14.32
2022-10-18T06:43:20.876Z,14.4
2022-10-18T06:44:18.270Z,14.32
2022-10-18T06:45:18.441Z,14.32
2022-10-18T06:46:18.567Z,14.24
2022-10-18T06:47:18.727Z,14.08
2022-10-18T06:49:19.724Z,14
2022-10-18T06:50:19.171Z,14
2022-10-18T06:51:19.330Z,14
2022-10-18T06:52:19.479Z,14
2022-10-18T06:53:19.642Z,14.08
2022-10-18T06:54:19.751Z,14.24
2022-10-18T06:55:19.900Z,14.24
2022-10-18T06:56:20.031Z,14.24
2022-10-18T06:57:20.199Z,14.24
2022-10-18T06:58:20.337Z,14.24
2022-10-18T06:59:20.453Z,14.24
2022-10-18T07:00:20.599Z,14.32
2022-10-18T07:01:20.808Z,14.24
2022-10-18T07:02:20.899Z,14.24
2022-10-18T07:03:21.057Z,14.32
2022-10-18T07:04:21.207Z,14.32
2022-10-18T07:05:21.423Z,14.32
2022-10-18T07:06:21.469Z,14.48
2022-10-18T07:07:21.618Z,14.4
2022-10-18T07:08:21.763Z,14.48
2022-10-18T07:09:21.914Z,14.4
2022-10-18T07:10:22.071Z,14.48
2022-10-18T07:11:22.171Z,14.48
2022-10-18T07:12:22.260Z,14.639999
2022-10-18T07:13:32.247Z,14.639999
2022-10-18T07:14:25.784Z,14.799999
2022-10-18T07:15:22.860Z,14.799999
2022-10-18T07:16:22.867Z,14.88
2022-10-18T07:17:22.989Z,14.799999
2022-10-18T07:18:23.131Z,14.799999
2022-10-18T07:19:23.319Z,14.88
2022-10-18T07:20:23.441Z,14.88
2022-10-18T07:21:23.591Z,15.04
2022-10-18T07:22:27.039Z,15.28
2022-10-18T07:23:23.889Z,15.2
2022-10-18T07:24:24.131Z,14.88
2022-10-18T07:25:25.864Z,14.719999
2022-10-18T07:26:24.353Z,14.48
2022-10-18T07:27:24.526Z,14.48
2022-10-18T07:28:24.666Z,14.639999
2022-10-18T07:29:25.022Z,14.639999
2022-10-18T07:30:25.157Z,14.799999
2022-10-18T07:31:25.302Z,14.799999
2022-10-18T07:32:25.455Z,14.799999
2022-10-18T07:33:25.621Z,14.799999
2022-10-18T07:34:25.758Z,15.04
2022-10-18T07:35:26.161Z,15.04
2022-10-18T07:36:26.018Z,15.04
2022-10-18T07:37:26.704Z,15.28
2022-10-18T07:38:26.317Z,15.2
2022-10-18T07:39:26.421Z,15.12
2022-10-18T07:40:26.524Z,15.12
2022-10-18T07:41:26.670Z,15.12
2022-10-18T07:42:26.820Z,15.12
2022-10-18T07:43:26.982Z,15.2
2022-10-18T07:44:27.078Z,15.2
2022-10-18T07:45:27.234Z,15.2
2022-10-18T07:46:27.317Z,15.44
2022-10-18T07:47:28.073Z,15.28
2022-10-18T07:48:27.541Z,15.28
2022-10-18T07:49:27.684Z,15.44
2022-10-18T07:50:27.843Z,15.599999
2022-10-18T07:51:27.995Z,15.599999
2022-10-18T07:52:28.158Z,15.599999
2022-10-18T07:53:28.294Z,15.52
2022-10-18T07:54:28.444Z,15.599999
2022-10-18T07:55:28.610Z,15.599999
2022-10-18T07:56:28.758Z,15.599999
2022-10-18T07:57:28.910Z,15.92
2022-10-18T07:58:29.051Z,15.92
2022-10-18T07:59:29.158Z,16
2022-10-18T08:00:29.314Z,16.24
2022-10-18T08:01:29.425Z,16.08
2022-10-18T08:02:29.557Z,16.24
2022-10-18T08:03:29.709Z,16.4
2022-10-18T08:04:29.862Z,16.32
2022-10-18T08:05:30.050Z,16.24
2022-10-18T08:06:30.167Z,16.32
2022-10-18T08:07:30.512Z,16.24
2022-10-18T08:08:30.470Z,16.32
2022-10-18T08:09:30.622Z,16.24
2022-10-18T08:10:31.280Z,16.4
2022-10-18T08:11:30.921Z,16.64
2022-10-18T08:12:31.077Z,16.64
2022-10-18T08:13:31.229Z,16.48
2022-10-18T08:14:31.322Z,16.32
2022-10-18T08:15:31.441Z,16.32
2022-10-18T08:17:33.119Z,16.08
2022-10-18T08:18:31.825Z,16
2022-10-18T08:19:31.937Z,16
2022-10-18T08:20:32.117Z,16
2022-10-18T08:21:32.240Z,16
2022-10-18T08:22:32.388Z,16
2022-10-18T08:23:32.549Z,16.08
2022-10-18T08:24:32.699Z,16.4
2022-10-18T08:25:32.902Z,16.24
2022-10-18T08:26:32.953Z,16.32
2022-10-18T08:27:33.299Z,16.4
2022-10-18T08:28:33.291Z,16.24
2022-10-18T08:29:33.430Z,16.24
2022-10-18T08:30:33.571Z,16.24
2022-10-18T08:31:33.704Z,16.08
2022-10-18T08:32:34.136Z,16.08
2022-10-18T08:33:33.972Z,16.08
2022-10-18T08:34:34.120Z,16.32
2022-10-18T08:35:34.277Z,16.24
2022-10-18T08:36:34.415Z,16.4
2022-10-18T08:37:34.780Z,16.32
2022-10-18T08:38:34.719Z,16.32
2022-10-18T08:39:34.879Z,16.32
2022-10-18T08:40:35.368Z,16.32
2022-10-18T08:41:35.519Z,16.32
2022-10-18T08:42:35.663Z,16.48
2022-10-18T08:44:36.550Z,16.4
2022-10-18T08:45:42.188Z,16.48
2022-10-18T08:46:35.827Z,16.4
2022-10-18T08:47:35.986Z,16.4
2022-10-18T08:48:36.148Z,16.64
2022-10-18T08:49:36.291Z,16.72
2022-10-18T08:50:36.400Z,16.88
2022-10-18T08:51:36.547Z,16.88
2022-10-18T08:52:36.712Z,16.8
2022-10-18T08:53:39.137Z,16.88
2022-10-18T08:54:36.991Z,16.88
2022-10-18T08:55:37.140Z,17.04
2022-10-18T08:56:37.298Z,17.04
2022-10-18T08:57:37.454Z,17.04
2022-10-18T08:58:37.556Z,17.44
2022-10-18T08:59:37.713Z,17.52
2022-10-18T09:00:37.859Z,17.28
2022-10-18T09:01:38.012Z,17.2
2022-10-18T09:02:38.063Z,17.2
2022-10-18T09:03:38.263Z,17.12
2022-10-18T09:04:38.364Z,17.12
2022-10-18T09:05:38.512Z,17.12
2022-10-18T09:06:38.681Z,17.12
2022-10-18T09:07:38.777Z,17.28
2022-10-18T09:08:38.936Z,17.2
2022-10-18T09:09:39.104Z,17.2
2022-10-18T09:10:39.230Z,17.44
2022-10-18T09:11:39.440Z,17.52
2022-10-18T09:12:39.586Z,17.6
2022-10-18T09:13:39.693Z,18.24
2022-10-18T09:14:39.832Z,18.64
2022-10-18T09:15:39.982Z,19.52
2022-10-18T09:16:40.085Z,19.44
2022-10-18T09:17:40.240Z,19.28
2022-10-18T09:18:40.389Z,19.76
2022-10-18T09:19:40.551Z,20.32
2022-10-18T09:20:40.694Z,19.92
2022-10-18T09:21:40.870Z,20
2022-10-18T09:22:41.003Z,20.32
2022-10-18T09:23:41.116Z,20.4
2022-10-18T09:24:41.259Z,20.32
2022-10-18T09:25:41.402Z,20.24
2022-10-18T09:26:41.554Z,20.32
2022-10-18T09:27:41.676Z,20.32
2022-10-18T09:28:41.871Z,19.68
2022-10-18T09:29:41.921Z,19.92
2022-10-18T09:30:42.054Z,20.32
2022-10-18T09:31:42.209Z,20.08
2022-10-18T09:32:42.307Z,20.24
2022-10-18T09:33:42.416Z,20.32
2022-10-18T09:34:42.513Z,19.92
2022-10-18T09:35:42.630Z,21.12
2022-10-18T09:36:42.770Z,22.08
2022-10-18T09:37:42.935Z,22.8
2022-10-18T09:38:43.082Z,23.12
2022-10-18T09:39:43.229Z,23.68
2022-10-18T09:40:43.391Z,24.08
2022-10-18T09:41:43.486Z,24
2022-10-18T09:42:43.660Z,23.6
2022-10-18T09:43:43.742Z,23.84
2022-10-18T09:44:43.898Z,23.12
2022-10-18T09:45:44.033Z,22.8
2022-10-18T09:46:44.185Z,22.64
2022-10-18T09:47:44.295Z,22.08
2022-10-18T09:48:44.437Z,21.6
2022-10-18T09:49:44.602Z,20.64
2022-10-18T09:50:44.756Z,20.32
2022-10-18T09:51:44.906Z,20
2022-10-18T09:52:45.056Z,20
2022-10-18T09:53:45.163Z,19.76
2022-10-18T09:54:45.269Z,20
2022-10-18T09:55:45.363Z,19.92
2022-10-18T09:56:45.531Z,19.76
2022-10-18T09:57:45.667Z,19.92
2022-10-18T09:58:45.814Z,20
2022-10-18T09:59:45.967Z,19.6
2022-10-18T10:00:46.066Z,19.44
2022-10-18T10:01:46.178Z,19.2
2022-10-18T10:02:46.383Z,19.12
2022-10-18T10:03:46.469Z,19.2
2022-10-18T10:04:46.622Z,19.12
2022-10-18T10:05:46.793Z,18.72
2022-10-18T10:06:46.972Z,18.72
2022-10-18T10:07:47.029Z,18.32
2022-10-18T10:08:47.174Z,18.08
2022-10-18T10:09:47.284Z,17.92
2022-10-18T10:10:47.436Z,17.76
2022-10-18T10:11:47.592Z,17.52
2022-10-18T10:12:47.747Z,17.52
2022-10-18T10:13:47.843Z,17.28
2022-10-18T10:14:47.983Z,17.2
2022-10-18T10:15:48.134Z,17.12
2022-10-18T10:16:48.294Z,17.04
2022-10-18T10:17:48.451Z,17.04
2022-10-18T10:18:48.598Z,16.88
2022-10-18T10:19:48.754Z,16.88
2022-10-18T10:20:48.909Z,16.8
2022-10-18T10:21:49.052Z,16.8
2022-10-18T10:22:49.220Z,16.72
2022-10-18T10:23:49.355Z,16.8
2022-10-18T10:24:49.516Z,16.8
2022-10-18T10:25:49.670Z,16.88
2022-10-18T10:26:49.827Z,16.8
2022-10-18T10:27:49.967Z,16.8
2022-10-18T10:28:50.170Z,16.48
2022-10-18T10:29:50.282Z,16.24
2022-10-18T10:30:50.411Z,16.24
2022-10-18T10:31:50.567Z,16.32
2022-10-18T10:32:50.728Z,16.24
2022-10-18T10:33:50.874Z,16.24
2022-10-18T10:34:51.027Z,16.24
2022-10-18T10:35:53.960Z,16.24
2022-10-18T10:36:51.341Z,16.24
2022-10-18T10:37:51.490Z,16.24
2022-10-18T10:38:51.645Z,16.24
2022-10-18T10:40:06.989Z,16.4
2022-10-18T10:40:51.948Z,16.08
2022-10-18T10:41:52.088Z,16
2022-10-18T10:42:54.449Z,16
2022-10-18T10:43:52.404Z,15.92
2022-10-18T10:44:52.549Z,15.92
2022-10-18T10:45:52.692Z,15.839999
2022-10-18T10:46:52.784Z,15.839999
2022-10-18T10:47:52.940Z,16
2022-10-18T10:49:00.561Z,16.08
2022-10-18T10:49:53.259Z,15.92
2022-10-18T10:50:54.443Z,15.839999
2022-10-18T10:51:57.769Z,15.839999
2022-10-18T10:52:53.662Z,15.599999
2022-10-18T10:53:53.814Z,15.599999
2022-10-18T10:54:55.775Z,15.52
2022-10-18T10:55:54.068Z,15.52
2022-10-18T10:56:54.223Z,15.52
2022-10-18T10:57:54.269Z,15.52
2022-10-18T10:58:54.496Z,15.44
2022-10-18T10:59:54.582Z,15.28
2022-10-18T11:00:54.721Z,15.28
2022-10-18T11:01:54.880Z,15.44
2022-10-18T11:02:59.438Z,15.28
2022-10-18T11:03:55.205Z,15.2
2022-10-18T11:04:55.339Z,15.2
2022-10-18T11:05:55.521Z,15.2
2022-10-18T11:06:55.637Z,15.2
2022-10-18T11:07:55.792Z,15.12
2022-10-18T11:08:55.937Z,15.2
2022-10-18T11:09:56.090Z,15.12
2022-10-18T11:10:56.245Z,15.2
2022-10-18T11:11:56.404Z,15.2
2022-10-18T11:12:56.550Z,15.2
2022-10-18T11:14:13.517Z,15.2
2022-10-18T11:14:56.861Z,15.28
2022-10-18T11:15:56.953Z,15.28
2022-10-18T11:16:57.106Z,15.28
2022-10-18T11:17:57.272Z,15.28
2022-10-18T11:18:57.361Z,15.2
2022-10-18T11:19:57.517Z,15.28
2022-10-18T11:20:57.655Z,15.28
2022-10-18T11:21:57.818Z,15.2
2022-10-18T11:22:57.982Z,15.2
2022-10-18T11:23:58.128Z,15.2
2022-10-18T11:24:58.264Z,15.2
2022-10-18T11:25:58.420Z,15.2
2022-10-18T11:26:58.571Z,15.2
2022-10-18T11:27:58.731Z,15.2
2022-10-18T11:28:58.922Z,15.12
2022-10-18T11:29:58.980Z,15.2
2022-10-18T11:30:59.116Z,15.12
2022-10-18T11:31:59.271Z,15.2
2022-10-18T11:32:59.438Z,15.2
2022-10-18T11:34:08.007Z,15.2
2022-10-18T11:34:59.730Z,15.2
2022-10-18T11:36:03.619Z,15.2
2022-10-18T11:37:22.792Z,15.2
2022-10-18T11:38:00.104Z,15.2
2022-10-18T11:39:00.251Z,15.2
2022-10-18T11:40:00.393Z,15.2
2022-10-18T11:41:00.558Z,15.2
2022-10-18T11:42:00.702Z,15.2
2022-10-18T11:43:00.852Z,15.2
2022-10-18T11:44:02.877Z,15.12
2022-10-18T11:45:01.159Z,15.12
2022-10-18T11:46:01.303Z,15.2
2022-10-18T11:47:01.452Z,15.2
2022-10-18T11:48:01.613Z,15.2
2022-10-18T11:49:01.771Z,15.2
2022-10-18T11:50:01.913Z,15.04
2022-10-18T11:51:02.061Z,15.12
2022-10-18T11:52:07.642Z,15.12
2022-10-18T11:53:02.375Z,15.2
2022-10-18T11:54:02.478Z,15.04
2022-10-18T11:55:02.622Z,15.12
2022-10-18T11:56:02.774Z,15.04
2022-10-18T11:57:02.944Z,15.12
2022-10-18T11:58:03.032Z,15.12
2022-10-18T11:59:03.197Z,15.12
2022-10-18T12:00:03.332Z,15.04
2022-10-18T12:01:03.471Z,15.12
2022-10-18T12:02:03.634Z,15.12
2022-10-18T12:03:03.869Z,14.88
2022-10-18T12:04:03.943Z,15.04
2022-10-18T12:05:23.367Z,15.04
2022-10-18T12:06:04.241Z,14.799999
2022-10-18T12:07:04.389Z,14.88
2022-10-18T12:08:04.547Z,15.12
2022-10-18T12:09:04.703Z,15.12
2022-10-18T12:10:04.807Z,15.04
2022-10-18T12:11:05.992Z,14.88
2022-10-18T12:12:05.146Z,14.88
2022-10-18T12:13:05.261Z,14.88
2022-10-18T12:14:05.343Z,14.88
2022-10-18T12:15:05.526Z,14.88
2022-10-18T12:16:05.650Z,14.88
2022-10-18T12:17:39.239Z,14.88
2022-10-18T12:18:05.912Z,14.88
2022-10-18T12:19:06.015Z,14.799999
2022-10-18T12:20:06.179Z,14.799999
2022-10-18T12:21:06.270Z,14.799999
2022-10-18T12:22:06.423Z,14.799999
2022-10-18T12:23:06.578Z,14.88
2022-10-18T12:24:06.726Z,14.639999
2022-10-18T12:25:06.868Z,14.639999
2022-10-18T12:26:07.034Z,14.719999
2022-10-18T12:27:07.181Z,14.799999
2022-10-18T12:28:07.368Z,14.799999
2022-10-18T12:29:07.550Z,14.799999
2022-10-18T12:30:07.645Z,14.799999
2022-10-18T12:31:07.786Z,14.799999
2022-10-18T12:32:07.937Z,14.799999
2022-10-18T12:33:23.440Z,14.799999
2022-10-18T12:34:08.232Z,15.04
2022-10-18T12:35:08.401Z,15.04
2022-10-18T12:36:08.555Z,15.04
2022-10-18T12:37:08.699Z,15.04
2022-10-18T12:38:08.809Z,15.04
2022-10-18T12:39:08.947Z,15.04
2022-10-18T12:40:11.326Z,14.799999
2022-10-18T12:41:09.258Z,14.799999
2022-10-18T12:42:09.405Z,14.799999
2022-10-18T12:43:09.559Z,14.719999
2022-10-18T12:44:09.723Z,14.719999
2022-10-18T12:45:09.870Z,14.719999
2022-10-18T12:46:13.488Z,14.639999
2022-10-18T12:47:10.174Z,14.639999
2022-10-18T12:48:10.326Z,14.639999